createdAt,value
2022-11-29T00:01:32.642Z,96243.16
2022-11-29T00:03:59.569Z,96246.59
2022-11-29T00:06:32.034Z,96244.38
2022-11-29T00:09:01.034Z,96239.16
2022-11-29T00:11:49.235Z,96241.94
2022-11-29T00:14:18.079Z,96229.28
2022-11-29T00:16:45.139Z,96234.63
2022-11-29T00:19:13.613Z,96235.94
2022-11-29T00:21:40.082Z,96234.03
2022-11-29T00:24:06.831Z,96240.56
2022-11-29T00:26:33.191Z,96232.91
2022-11-29T00:28:59.526Z,96235.03
2022-11-29T00:31:32.765Z,96229.75
2022-11-29T00:34:01.094Z,96228.81
2022-11-29T00:36:28.168Z,96229.53
2022-11-29T00:38:54.503Z,96228.00
2022-11-29T00:41:20.881Z,96225.81
2022-11-29T00:43:47.255Z,96226.06
2022-11-29T00:46:13.720Z,96228.53
2022-11-29T00:48:40.172Z,96224.03
2022-11-29T00:51:07.169Z,96236.06
2022-11-29T00:53:35.348Z,96233.53
2022-11-29T00:56:02.229Z,96224.03
2022-11-29T00:58:28.871Z,96221.97
2022-11-29T01:00:55.975Z,96218.03
2022-11-29T01:03:23.033Z,96220.56
2022-11-29T01:05:49.822Z,96218.59
2022-11-29T01:08:17.189Z,96217.91
2022-11-29T01:10:43.633Z,96215.59
2022-11-29T01:13:10.849Z,96224.69
2022-11-29T01:15:37.483Z,96225.38
2022-11-29T01:18:04.294Z,96220.28
2022-11-29T01:20:30.649Z,96228.09
2022-11-29T01:22:56.983Z,96228.69
2022-11-29T01:25:23.451Z,96233.19
2022-11-29T01:27:49.827Z,96231.53
2022-11-29T01:30:16.386Z,96230.22
2022-11-29T01:32:42.968Z,96228.94
2022-11-29T01:35:09.408Z,96221.69
2022-11-29T01:37:35.872Z,96223.91
2022-11-29T01:40:02.389Z,96215.03
2022-11-29T01:42:28.929Z,96213.09
2022-11-29T01:45:04.838Z,96210.72
2022-11-29T01:47:32.281Z,96209.59
2022-11-29T01:49:59.864Z,96217.09
2022-11-29T01:52:30.780Z,96216.50
2022-11-29T01:55:01.664Z,96216.31
2022-11-29T01:57:28.801Z,96209.63
2022-11-29T02:00:02.174Z,96211.38
2022-11-29T02:02:36.841Z,96219.56
2022-11-29T02:05:04.106Z,96211.53
2022-11-29T02:07:31.009Z,96219.97
2022-11-29T02:09:57.415Z,96221.22
2022-11-29T02:12:38.178Z,96222.22
2022-11-29T02:15:13.580Z,96221.34
2022-11-29T02:17:52.243Z,96222.81
2022-11-29T02:20:55.448Z,96220.00
2022-11-29T02:23:51.262Z,96222.06
2022-11-29T02:26:28.800Z,96215.72
2022-11-29T02:29:20.974Z,96216.53
2022-11-29T02:32:08.346Z,96210.75
2022-11-29T02:35:00.538Z,96220.53
2022-11-29T02:37:48.427Z,96219.53
2022-11-29T02:40:24.190Z,96220.22
2022-11-29T02:43:18.494Z,96213.44
2022-11-29T02:46:16.730Z,96214.75
2022-11-29T02:48:55.533Z,96209.34
2022-11-29T02:51:48.246Z,96204.75
2022-11-29T02:54:44.471Z,96220.41
2022-11-29T02:57:41.050Z,96219.16
2022-11-29T03:00:17.758Z,96223.66
2022-11-29T03:03:03.298Z,96218.75
2022-11-29T03:05:41.893Z,96214.16
2022-11-29T03:08:11.227Z,96217.84
2022-11-29T03:11:04.810Z,96218.44
2022-11-29T03:13:50.923Z,96220.59
2022-11-29T03:16:30.119Z,96221.50
2022-11-29T03:19:17.453Z,96219.50
2022-11-29T03:22:10.166Z,96223.00
2022-11-29T03:24:49.408Z,96234.78
2022-11-29T03:27:28.660Z,96229.69
2022-11-29T03:29:58.813Z,96230.91
2022-11-29T03:32:34.810Z,96231.81
2022-11-29T03:35:09.998Z,96238.16
2022-11-29T03:37:47.892Z,96235.94
2022-11-29T03:40:22.300Z,96236.53
2022-11-29T03:42:55.055Z,96231.91
2022-11-29T03:45:32.792Z,96231.41
2022-11-29T03:48:11.534Z,96234.47
2022-11-29T03:50:43.166Z,96236.97
2022-11-29T03:53:20.110Z,96239.81
2022-11-29T03:55:48.940Z,96244.97
2022-11-29T03:58:52.499Z,96243.00
2022-11-29T04:01:37.442Z,96244.66
2022-11-29T04:04:22.630Z,96241.66
2022-11-29T04:07:16.220Z,96243.78
2022-11-29T04:10:04.535Z,96239.94
2022-11-29T04:13:08.668Z,96244.00
2022-11-29T04:16:10.137Z,96234.19
2022-11-29T04:18:58.023Z,96227.91
2022-11-29T04:21:32.278Z,96232.59
2022-11-29T04:24:36.288Z,96229.47
2022-11-29T04:27:19.943Z,96234.63
2022-11-29T04:30:05.035Z,96236.53
2022-11-29T04:33:15.026Z,96235.94
2022-11-29T04:36:14.187Z,96240.38
2022-11-29T04:39:02.906Z,96241.63
2022-11-29T04:41:32.177Z,96239.78
2022-11-29T04:44:09.365Z,96245.22
2022-11-29T04:47:11.695Z,96240.53
2022-11-29T04:50:15.697Z,96239.00
2022-11-29T04:52:45.016Z,96251.91
2022-11-29T04:55:40.398Z,96253.34
2022-11-29T04:58:30.170Z,96258.31
2022-11-29T05:01:39.774Z,96245.28
2022-11-29T05:04:23.405Z,96251.34
2022-11-29T05:07:02.941Z,96250.38
2022-11-29T05:09:55.267Z,96253.28
2022-11-29T05:12:28.391Z,96255.09
2022-11-29T05:15:29.098Z,96258.78
2022-11-29T05:18:00.166Z,96259.34
2022-11-29T05:20:44.978Z,96262.66
2022-11-29T05:24:11.964Z,96256.03
2022-11-29T05:26:49.051Z,96258.53
2022-11-29T05:29:50.219Z,96255.22
2022-11-29T05:32:32.545Z,96269.25
2022-11-29T05:35:35.593Z,96265.53
2022-11-29T05:38:29.744Z,96263.75
2022-11-29T05:41:21.106Z,96275.88
2022-11-29T05:44:15.461Z,96269.69
2022-11-29T05:47:02.657Z,96268.44
2022-11-29T05:49:38.029Z,96276.44
2022-11-29T05:52:34.820Z,96282.09
2022-11-29T05:55:44.931Z,96277.81
2022-11-29T05:58:38.949Z,96281.41
2022-11-29T06:01:25.967Z,96285.69
2022-11-29T06:04:10.336Z,96291.16
2022-11-29T06:06:47.669Z,96278.06
2022-11-29T06:09:21.638Z,96281.41
2022-11-29T06:11:58.047Z,96282.09
2022-11-29T06:15:00.781Z,96292.81
2022-11-29T06:17:55.114Z,96294.75
2022-11-29T06:20:39.696Z,96292.69
2022-11-29T06:23:15.265Z,96295.84
2022-11-29T06:25:48.329Z,96292.94
2022-11-29T06:28:56.128Z,96300.66
2022-11-29T06:31:31.903Z,96293.50
2022-11-29T06:34:17.088Z,96295.03
2022-11-29T06:36:46.445Z,96297.91
2022-11-29T06:39:13.204Z,96300.53
2022-11-29T06:41:39.589Z,96303.16
2022-11-29T06:44:06.561Z,96309.75
2022-11-29T06:47:00.947Z,96306.47
2022-11-29T06:49:32.938Z,96307.16
2022-11-29T06:52:08.471Z,96311.84
2022-11-29T06:55:02.704Z,96313.63
2022-11-29T06:57:41.862Z,96310.59
2022-11-29T07:00:23.833Z,96318.31
2022-11-29T07:03:24.057Z,96318.56
2022-11-29T07:05:50.834Z,96316.94
2022-11-29T07:08:20.793Z,96320.50
2022-11-29T07:10:50.027Z,96323.81
2022-11-29T07:13:20.453Z,96324.63
2022-11-29T07:15:49.873Z,96330.69
2022-11-29T07:18:35.658Z,96330.97
2022-11-29T07:21:14.256Z,96332.63
2022-11-29T07:23:57.319Z,96334.00
2022-11-29T07:26:59.405Z,96335.41
2022-11-29T07:29:39.532Z,96330.41
2022-11-29T07:32:24.155Z,96331.38
2022-11-29T07:35:09.290Z,96334.84
2022-11-29T07:37:41.221Z,96329.59
2022-11-29T07:40:37.144Z,96342.81
2022-11-29T07:43:25.447Z,96340.88
2022-11-29T07:45:52.072Z,96335.41
2022-11-29T07:48:18.481Z,96343.09
2022-11-29T07:50:45.350Z,96344.63
2022-11-29T07:53:18.044Z,96342.97
2022-11-29T07:55:44.960Z,96345.31
2022-11-29T07:58:13.194Z,96346.28
2022-11-29T08:00:41.988Z,96345.31
2022-11-29T08:03:09.450Z,96350.44
2022-11-29T08:05:37.145Z,96354.56
2022-11-29T08:08:04.258Z,96354.97
2022-11-29T08:10:30.745Z,96357.72
2022-11-29T08:12:57.294Z,96359.38
2022-11-29T08:15:25.015Z,96361.03
2022-11-29T08:17:53.024Z,96350.72
2022-11-29T08:20:19.759Z,96360.22
2022-11-29T08:22:53.927Z,96367.81
2022-11-29T08:25:20.260Z,96363.97
2022-11-29T08:27:46.602Z,96360.09
2022-11-29T08:30:13.226Z,96370.16
2022-11-29T08:32:39.629Z,96369.63
2022-11-29T08:35:06.120Z,96358.88
2022-11-29T08:37:32.464Z,96370.31
2022-11-29T08:39:59.018Z,96371.53
2022-11-29T08:42:25.419Z,96371.38
2022-11-29T08:44:51.959Z,96370.16
2022-11-29T08:47:36.244Z,96375.69
2022-11-29T08:50:17.826Z,96374.44
2022-11-29T08:53:05.203Z,96371.53
2022-11-29T08:55:35.475Z,96370.31
2022-11-29T08:58:04.814Z,96371.13
2022-11-29T09:00:32.433Z,96368.66
2022-11-29T09:03:19.267Z,96374.88
2022-11-29T09:05:45.945Z,96378.19
2022-11-29T09:08:12.329Z,96384.09
2022-11-29T09:10:40.114Z,96383.81
2022-11-29T09:13:07.971Z,96383.41
2022-11-29T09:15:34.501Z,96387.84
2022-11-29T09:18:00.843Z,96389.50
2022-11-29T09:20:27.212Z,96397.91
2022-11-29T09:22:53.573Z,96397.75
2022-11-29T09:25:19.917Z,96393.06
2022-11-29T09:27:46.367Z,96392.38
2022-11-29T09:30:13.063Z,96392.91
2022-11-29T09:32:39.412Z,96399.25
2022-11-29T09:35:06.194Z,96398.97
2022-11-29T09:37:33.117Z,96405.72
2022-11-29T09:39:59.521Z,96405.50
2022-11-29T09:42:47.520Z,96412.09
2022-11-29T09:45:19.445Z,96409.59
2022-11-29T09:48:01.123Z,96404.94
2022-11-29T09:50:34.924Z,96406.34
2022-11-29T09:53:21.082Z,96396.38
2022-11-29T09:56:05.418Z,96401.50
2022-11-29T09:58:40.561Z,96403.03
2022-11-29T10:01:13.311Z,96396.53
2022-11-29T10:03:47.027Z,96404.94
2022-11-29T10:06:13.325Z,96408.53
2022-11-29T10:08:47.043Z,96403.84
2022-11-29T10:11:28.247Z,96399.97
2022-11-29T10:14:01.325Z,96397.53
2022-11-29T10:17:00.236Z,96401.66
2022-11-29T10:19:36.332Z,96402.47
2022-11-29T10:22:07.590Z,96403.28
2022-11-29T10:24:34.382Z,96402.50
2022-11-29T10:27:00.946Z,96394.34
2022-11-29T10:29:27.453Z,96403.97
2022-11-29T10:31:56.610Z,96396.56
2022-11-29T10:34:25.577Z,96407.72
2022-11-29T10:37:02.192Z,96398.22
2022-11-29T10:39:39.706Z,96393.22
2022-11-29T10:42:34.554Z,96400.53
2022-11-29T10:45:01.705Z,96404.13
2022-11-29T10:47:28.333Z,96396.69
2022-11-29T10:49:54.803Z,96393.41
2022-11-29T10:52:23.254Z,96398.63
2022-11-29T10:54:53.581Z,96399.84
2022-11-29T10:57:22.346Z,96400.00
2022-11-29T10:59:59.792Z,96399.72
2022-11-29T11:02:27.708Z,96402.34
2022-11-29T11:04:54.484Z,96393.66
2022-11-29T11:07:40.683Z,96398.50
2022-11-29T11:10:27.282Z,96404.97
2022-11-29T11:13:20.439Z,96396.41
2022-11-29T11:15:47.011Z,96398.22
2022-11-29T11:18:26.597Z,96399.31
2022-11-29T11:20:56.412Z,96396.00
2022-11-29T11:23:25.996Z,96396.00
2022-11-29T11:26:07.505Z,96400.00
2022-11-29T11:28:48.350Z,96393.53
2022-11-29T11:31:15.133Z,96393.22
2022-11-29T11:33:46.005Z,96393.50
2022-11-29T11:36:12.525Z,96391.31
2022-11-29T11:38:51.432Z,96394.75
2022-11-29T11:41:47.493Z,96395.88
2022-11-29T11:44:47.224Z,96394.75
2022-11-29T11:47:19.802Z,96401.13
2022-11-29T11:50:11.289Z,96397.09
2022-11-29T11:52:50.722Z,96395.72
2022-11-29T11:55:40.454Z,96400.81
2022-11-29T11:58:12.495Z,96397.91
2022-11-29T12:01:04.082Z,96399.88
2022-11-29T12:03:49.728Z,96406.75
2022-11-29T12:06:28.550Z,96402.59
2022-11-29T12:09:23.317Z,96404.00
2022-11-29T12:12:00.323Z,96405.50
2022-11-29T12:14:36.569Z,96407.72
2022-11-29T12:17:37.100Z,96401.91
2022-11-29T12:20:12.797Z,96412.41
2022-11-29T12:22:51.712Z,96409.09
2022-11-29T12:25:25.069Z,96410.47
2022-11-29T12:27:51.980Z,96407.03
2022-11-29T12:30:19.311Z,96412.13
2022-11-29T12:33:06.879Z,96407.72
2022-11-29T12:35:39.716Z,96409.66
2022-11-29T12:38:23.692Z,96413.94
2022-11-29T12:40:53.277Z,96410.75
2022-11-29T12:43:22.648Z,96413.94
2022-11-29T12:46:16.568Z,96414.22
2022-11-29T12:48:45.964Z,96415.84
2022-11-29T12:51:31.090Z,96411.31
2022-11-29T12:54:18.265Z,96422.06
2022-11-29T12:56:59.067Z,96415.03
2022-11-29T12:59:43.044Z,96415.19
2022-11-29T13:02:22.011Z,96418.50
2022-11-29T13:05:19.301Z,96416.41
2022-11-29T13:08:07.473Z,96420.41
2022-11-29T13:10:58.341Z,96413.53
2022-11-29T13:13:38.928Z,96419.47
2022-11-29T13:16:31.504Z,96415.44
2022-11-29T13:19:04.107Z,96419.84
2022-11-29T13:21:45.651Z,96416.41
2022-11-29T13:24:28.962Z,96428.13
2022-11-29T13:26:56.774Z,96425.53
2022-11-29T13:29:24.044Z,96430.34
2022-11-29T13:31:51.586Z,96421.25
2022-11-29T13:34:26.567Z,96425.09
2022-11-29T13:37:04.782Z,96430.78
2022-11-29T13:39:53.137Z,96429.81
2022-11-29T13:42:27.956Z,96423.44
2022-11-29T13:45:26.493Z,96424.97
2022-11-29T13:47:59.889Z,96424.53
2022-11-29T13:50:39.268Z,96424.84
2022-11-29T13:53:18.939Z,96424.56
2022-11-29T13:55:49.727Z,96426.34
2022-11-29T13:58:17.734Z,96427.59
2022-11-29T14:00:44.537Z,96428.72
2022-11-29T14:03:23.176Z,96428.44
2022-11-29T14:05:52.350Z,96432.56
2022-11-29T14:09:02.037Z,96436.69
2022-11-29T14:11:25.167Z,96429.13
2022-11-29T14:13:59.220Z,96432.00
2022-11-29T14:16:34.678Z,96438.91
2022-11-29T14:19:10.293Z,96431.31
2022-11-29T14:22:02.973Z,96431.47
2022-11-29T14:24:35.007Z,96435.59
2022-11-29T14:27:12.103Z,96436.00
2022-11-29T14:29:47.529Z,96438.63
2022-11-29T14:32:35.670Z,96436.00
2022-11-29T14:35:42.922Z,96441.25
2022-11-29T14:38:29.214Z,96452.03
2022-11-29T14:41:13.758Z,96452.56
2022-11-29T14:43:43.151Z,96449.53
2022-11-29T14:46:29.281Z,96450.91
2022-11-29T14:48:55.983Z,96444.41
2022-11-29T14:51:25.591Z,96448.00
2022-11-29T14:54:21.293Z,96444.97
2022-11-29T14:56:47.718Z,96453.81
2022-11-29T14:59:45.082Z,96460.03
2022-11-29T15:02:37.219Z,96460.84
2022-11-29T15:05:24.392Z,96463.47
2022-11-29T15:08:03.382Z,96461.53
2022-11-29T15:10:34.747Z,96462.38
2022-11-29T15:13:02.906Z,96457.66
2022-11-29T15:15:32.217Z,96466.22
2022-11-29T15:18:24.320Z,96468.69
2022-11-29T15:21:19.153Z,96476.44
2022-11-29T15:23:45.690Z,96468.56
2022-11-29T15:26:18.459Z,96468.28
2022-11-29T15:28:45.419Z,96480.41
2022-11-29T15:31:16.254Z,96473.66
2022-11-29T15:33:45.809Z,96479.84
2022-11-29T15:36:17.837Z,96479.72
2022-11-29T15:38:51.686Z,96484.69
2022-11-29T15:41:34.002Z,96485.47
2022-11-29T15:44:03.334Z,96488.22
2022-11-29T15:46:32.072Z,96490.69
2022-11-29T15:49:33.737Z,96487.88
2022-11-29T15:52:05.970Z,96479.09
2022-11-29T15:54:37.570Z,96493.97
2022-11-29T15:57:23.676Z,96504.75
2022-11-29T15:59:55.668Z,96498.25
2022-11-29T16:02:48.497Z,96503.50
2022-11-29T16:05:26.621Z,96506.41
2022-11-29T16:08:00.337Z,96508.72
2022-11-29T16:10:36.738Z,96500.88
2022-11-29T16:13:26.228Z,96504.75
2022-11-29T16:16:13.949Z,96505.31
2022-11-29T16:18:42.917Z,96499.63
2022-11-29T16:21:31.931Z,96508.63
2022-11-29T16:24:10.074Z,96507.53
2022-11-29T16:26:41.392Z,96510.38
2022-11-29T16:29:26.470Z,96508.16
2022-11-29T16:31:53.523Z,96515.22
2022-11-29T16:34:27.787Z,96514.94
2022-11-29T16:37:02.848Z,96519.94
2022-11-29T16:39:30.211Z,96514.53
2022-11-29T16:42:29.217Z,96520.88
2022-11-29T16:45:31.032Z,96517.03
2022-11-29T16:48:01.367Z,96514.06
2022-11-29T16:50:29.709Z,96524.31
2022-11-29T16:52:57.135Z,96523.25
2022-11-29T16:55:24.263Z,96522.09
2022-11-29T16:57:51.939Z,96517.38
2022-11-29T17:00:23.266Z,96528.97
2022-11-29T17:02:50.185Z,96526.19
2022-11-29T17:05:16.621Z,96527.56
2022-11-29T17:07:43.727Z,96524.56
2022-11-29T17:10:16.387Z,96536.97
2022-11-29T17:12:47.822Z,96529.78
2022-11-29T17:15:14.735Z,96525.97
2022-11-29T17:17:42.380Z,96528.72
2022-11-29T17:20:13.951Z,96528.13
2022-11-29T17:22:40.669Z,96523.03
2022-11-29T17:25:07.478Z,96532.28
2022-11-29T17:27:34.017Z,96538.09
2022-11-29T17:30:00.386Z,96528.72
2022-11-29T17:32:27.176Z,96537.22
2022-11-29T17:34:53.818Z,96542.88
2022-11-29T17:37:20.191Z,96537.81
2022-11-29T17:39:48.953Z,96533.28
2022-11-29T17:42:15.566Z,96534.06
2022-11-29T17:44:42.032Z,96533.25
2022-11-29T17:47:08.404Z,96541.06
2022-11-29T17:49:34.747Z,96549.38
2022-11-29T17:52:01.162Z,96550.59
2022-11-29T17:54:27.548Z,96548.16
2022-11-29T17:56:54.102Z,96548.88
2022-11-29T17:59:20.551Z,96544.53
2022-11-29T18:01:47.463Z,96546.84
2022-11-29T18:04:14.087Z,96549.16
2022-11-29T18:06:41.324Z,96544.28
2022-11-29T18:09:09.890Z,96549.63
2022-11-29T18:11:46.909Z,96550.31
2022-11-29T18:14:17.229Z,96550.09
2022-11-29T18:16:45.249Z,96557.41
2022-11-29T18:19:14.158Z,96556.56
2022-11-29T18:21:40.576Z,96555.78
2022-11-29T18:24:07.843Z,96554.16
2022-11-29T18:26:35.650Z,96551.16
2022-11-29T18:29:02.242Z,96552.00
2022-11-29T18:31:34.112Z,96552.56
2022-11-29T18:34:02.558Z,96561.13
2022-11-29T18:36:32.396Z,96557.75
2022-11-29T18:39:01.156Z,96560.56
2022-11-29T18:41:29.053Z,96566.88
2022-11-29T18:44:17.010Z,96568.53
2022-11-29T18:46:44.821Z,96565.47
2022-11-29T18:49:13.910Z,96568.19
2022-11-29T18:51:42.855Z,96563.13
2022-11-29T18:54:09.470Z,96572.00
2022-11-29T18:56:36.777Z,96571.75
2022-11-29T18:59:10.113Z,96572.00
2022-11-29T19:01:41.040Z,96581.69
2022-11-29T19:04:10.143Z,96572.88
2022-11-29T19:06:40.003Z,96574.88
2022-11-29T19:09:09.556Z,96575.44
2022-11-29T19:11:35.931Z,96577.34
2022-11-29T19:14:06.340Z,96576.66
2022-11-29T19:16:34.373Z,96583.13
2022-11-29T19:19:01.229Z,96583.31
2022-11-29T19:21:29.664Z,96589.94
2022-11-29T19:23:58.553Z,96586.94
2022-11-29T19:26:27.677Z,96581.06
2022-11-29T19:28:54.658Z,96580.00
2022-11-29T19:31:24.866Z,96581.66
2022-11-29T19:33:52.720Z,96581.00
2022-11-29T19:36:27.901Z,96581.50
2022-11-29T19:38:54.829Z,96582.63
2022-11-29T19:41:30.005Z,96581.13
2022-11-29T19:43:58.008Z,96585.81
2022-11-29T19:46:27.001Z,96577.69
2022-11-29T19:48:56.026Z,96582.22
2022-11-29T19:51:23.518Z,96590.28
2022-11-29T19:53:58.367Z,96585.34
2022-11-29T19:56:25.378Z,96580.19
2022-11-29T19:58:55.350Z,96582.72
2022-11-29T20:01:36.055Z,96577.66
2022-11-29T20:04:06.284Z,96582.34
2022-11-29T20:06:32.997Z,96586.13
2022-11-29T20:09:00.717Z,96587.47
2022-11-29T20:11:30.054Z,96591.94
2022-11-29T20:14:01.360Z,96594.75
2022-11-29T20:16:29.703Z,96595.94
2022-11-29T20:18:56.597Z,96597.34
2022-11-29T20:21:28.831Z,96594.59
2022-11-29T20:24:03.571Z,96597.09
2022-11-29T20:26:31.774Z,96592.22
2022-11-29T20:29:00.311Z,96593.66
2022-11-29T20:31:27.025Z,96599.81
2022-11-29T20:33:57.038Z,96600.16
2022-11-29T20:36:42.338Z,96608.03
2022-11-29T20:39:50.305Z,96609.78
2022-11-29T20:42:28.868Z,96610.81
2022-11-29T20:45:01.262Z,96615.78
2022-11-29T20:47:33.487Z,96609.41
2022-11-29T20:49:59.979Z,96614.00
2022-11-29T20:52:32.691Z,96607.97
2022-11-29T20:54:59.023Z,96607.13
2022-11-29T20:57:25.369Z,96606.78
2022-11-29T20:59:51.682Z,96613.28
2022-11-29T21:02:18.092Z,96613.56
2022-11-29T21:04:44.702Z,96607.66
2022-11-29T21:07:11.267Z,96617.84
2022-11-29T21:09:37.815Z,96610.38
2022-11-29T21:12:04.596Z,96612.25
2022-11-29T21:14:31.199Z,96612.59
2022-11-29T21:16:57.879Z,96605.81
2022-11-29T21:19:25.713Z,96612.84
2022-11-29T21:22:46.823Z,96612.22
2022-11-29T21:25:48.317Z,96605.06
2022-11-29T21:28:16.385Z,96603.53
2022-11-29T21:30:43.532Z,96604.03
2022-11-29T21:33:11.225Z,96599.22
2022-11-29T21:35:39.727Z,96607.81
2022-11-29T21:38:12.341Z,96607.28
2022-11-29T21:40:38.660Z,96605.53
2022-11-29T21:43:04.989Z,96608.13
2022-11-29T21:45:31.337Z,96615.03
2022-11-29T21:48:00.584Z,96619.72
2022-11-29T21:50:27.110Z,96610.69
2022-11-29T21:52:53.465Z,96612.38
2022-11-29T21:55:19.806Z,96614.38
2022-11-29T21:57:46.180Z,96618.28
2022-11-29T22:00:13.135Z,96621.69
2022-11-29T22:02:39.681Z,96618.22
2022-11-29T22:05:07.876Z,96624.16
2022-11-29T22:07:34.245Z,96617.25
2022-11-29T22:10:09.945Z,96611.22
2022-11-29T22:12:42.852Z,96610.13
2022-11-29T22:15:13.883Z,96616.47
2022-11-29T22:17:40.227Z,96623.25
2022-11-29T22:20:07.462Z,96617.16
2022-11-29T22:22:34.010Z,96616.50
2022-11-29T22:25:00.390Z,96614.63
2022-11-29T22:27:26.925Z,96615.34
2022-11-29T22:29:53.287Z,96611.91
2022-11-29T22:32:19.604Z,96607.66
2022-11-29T22:34:46.276Z,96612.13
2022-11-29T22:37:12.815Z,96615.88
2022-11-29T22:39:39.323Z,96610.81
2022-11-29T22:42:05.705Z,96613.06
2022-11-29T22:44:32.033Z,96616.03
2022-11-29T22:46:58.476Z,96615.09
2022-11-29T22:49:24.839Z,96615.72
2022-11-29T22:51:52.220Z,96617.38
2022-11-29T22:54:18.641Z,96617.69
2022-11-29T22:56:45.810Z,96616.75
2022-11-29T22:59:12.723Z,96621.84
2022-11-29T23:01:41.059Z,96617.44
2022-11-29T23:04:08.247Z,96622.81
2022-11-29T23:06:37.267Z,96622.59
2022-11-29T23:09:15.652Z,96617.97
2022-11-29T23:11:43.877Z,96618.72
2022-11-29T23:14:10.471Z,96617.16
2022-11-29T23:16:36.924Z,96620.09
2022-11-29T23:19:03.529Z,96608.03
2022-11-29T23:21:32.731Z,96614.59
2022-11-29T23:24:02.317Z,96615.72
2022-11-29T23:26:40.569Z,96605.44
2022-11-29T23:29:10.631Z,96607.13
2022-11-29T23:31:37.295Z,96612.94
2022-11-29T23:34:03.834Z,96609.84
2022-11-29T23:36:30.600Z,96606.75
2022-11-29T23:38:57.117Z,96606.75
2022-11-29T23:41:23.568Z,96604.81
2022-11-29T23:43:50.052Z,96609.78
2022-11-29T23:46:19.317Z,96604.44
2022-11-29T23:48:46.432Z,96607.19
2022-11-29T23:51:13.363Z,96599.59
2022-11-29T23:53:41.116Z,96611.34
2022-11-29T23:56:11.993Z,96606.44
2022-11-29T23:58:38.446Z,96604.06
